Time,TemperatureF,DewpointF,PressureIn,WindDirection,WindDirectionDegrees,WindSpeedMPH,WindSpeedGustMPH,Humidity,HourlyPrecipIn,Conditions,Clouds,dailyrainin,SolarRadiationWatts/m^2,SoftwareType,DateUTC
2013-09-13 00:00:00,46.1,44.5,30.21,North,354,6.9,6.9,94,0.00,CLR,BKN,0.00,0.0,WeatherDisplay:10.37,2013-09-13 05:00:00,
2013-09-13 00:05:00,46.1,44.5,30.21,North,354,6.0,8.0,94,0.00,CLR,BKN,0.00,0.0,WeatherDisplay:10.37,2013-09-13 05:05:00,
2013-09-13 00:10:00,46.1,44.5,30.21,North,352,6.9,6.9,94,0.00,CLR,BKN,0.00,0.0,WeatherDisplay:10.37,2013-09-13 05:10:00,
2013-09-13 00:15:00,46.2,44.8,30.21,North,352,3.0,7.0,95,0.00,CLR,BKN,0.00,0.0,WeatherDisplay:10.37,2013-09-13 05:15:00,
2013-09-13 00:20:00,46.2,44.8,30.21,North,352,7.0,7.0,95,0.00,CLR,BKN,0.00,0.0,WeatherDisplay:10.37,2013-09-13 05:20:00,
2013-09-13 00:25:00,46.4,45.0,30.20,North,356,6.9,6.9,95,0.00,CLR,BKN,0.00,0.0,WeatherDisplay:10.37,2013-09-13 05:25:00,
2013-09-13 00:30:00,46.2,44.6,30.21,North,356,6.0,6.0,94,0.00,CLR,BKN,0.00,0.0,WeatherDisplay:10.37,2013-09-13 05:30:00,
2013-09-13 00:35:00,46.2,44.6,30.21,North,350,5.8,5.8,94,0.00,CLR,BKN,0.00,0.0,WeatherDisplay:10.37,2013-09-13 05:35:00,
2013-09-13 00:40:00,46.1,44.5,30.21,NNW,348,5.8,5.8,94,0.00,CLR,BKN,0.00,0.0,WeatherDisplay:10.37,2013-09-13 05:40:00,
2013-09-13 00:45:00,46.1,44.5,30.21,NNW,347,6.9,6.9,94,0.00,CLR,BKN,0.00,0.0,WeatherDisplay:10.37,2013-09-13 05:45:00,
2013-09-13 00:50:00,46.1,44.5,30.21,NNW,345,6.9,6.9,94,0.00,CLR,BKN,0.00,0.0,WeatherDisplay:10.37,2013-09-13 05:50:00,
2013-09-13 00:56:00,46.1,44.5,30.21,NNW,345,8.0,8.0,94,0.00,CLR,BKN,0.00,0.0,WeatherDisplay:10.37,2013-09-13 05:56:00,
2013-09-13 01:01:00,46.1,44.5,30.21,NNW,344,6.9,6.9,94,0.00,CLR,BKN,0.00,0.0,WeatherDisplay:10.37,2013-09-13 06:01:00,
2013-09-13 01:06:00,46.2,44.8,30.22,NNW,340,7.0,7.0,95,0.00,CLR,BKN,0.00,0.0,WeatherDisplay:10.37,2013-09-13 06:06:00,
2013-09-13 01:11:00,46.4,45.0,30.22,NNW,338,6.9,6.9,95,0.00,CLR,BKN,0.00,0.0,WeatherDisplay:10.37,2013-09-13 06:11:00,
2013-09-13 01:16:00,46.5,45.1,30.22,NNW,338,4.0,4.0,95,0.00,CLR,BKN,0.00,0.0,WeatherDisplay:10.37,2013-09-13 06:16:00,
2013-09-13 01:21:00,46.5,45.1,30.22,NNW,338,4.6,4.6,95,0.00,CLR,BKN,0.00,0.0,WeatherDisplay:10.37,2013-09-13 06:21:00,
2013-09-13 01:26:00,46.4,44.8,30.22,NNW,338,2.3,2.3,94,0.00,CLR,BKN,0.00,0.0,WeatherDisplay:10.37,2013-09-13 06:26:00,
2013-09-13 01:31:00,46.2,44.3,30.21,NNW,338,5.0,5.0,93,0.00,CLR,BKN,0.00,0.0,WeatherDisplay:10.37,2013-09-13 06:31:00,
2013-09-13 01:37:00,46.1,44.2,30.21,NNW,338,7.0,7.0,93,0.00,CLR,BKN,0.00,0.0,WeatherDisplay:10.37,2013-09-13 06:37:00,
2013-09-13 01:42:00,46.0,44.1,30.21,NNW,338,3.5,3.5,93,0.00,CLR,BKN,0.00,0.0,WeatherDisplay:10.37,2013-09-13 06:42:00,
2013-09-13 01:47:00,45.8,43.6,30.21,NNW,338,3.5,3.5,92,0.00,CLR,BKN,0.00,0.0,WeatherDisplay:10.37,2013-09-13 06:47:00,
2013-09-13 01:52:00,45.7,43.5,30.21,NNW,338,4.6,4.6,92,0.00,CLR,BKN,0.00,0.0,WeatherDisplay:10.37,2013-09-13 06:52:00,
2013-09-13 01:57:00,45.5,43.3,30.21,NNW,338,4.6,4.6,92,0.00,CLR,BKN,0.00,0.0,WeatherDisplay:10.37,2013-09-13 06:57:00,
2013-09-13 02:03:00,45.2,42.7,30.21,NNW,338,3.5,3.5,91,0.00,CLR,BKN,0.00,0.0,WeatherDisplay:10.37,2013-09-13 07:03:00,
2013-09-13 02:08:00,45.1,42.6,30.21,NNW,338,5.0,5.0,91,0.00,CLR,BKN,0.00,0.0,WeatherDisplay:10.37,2013-09-13 07:08:00,
2013-09-13 02:13:00,44.9,42.4,30.21,NNW,338,3.5,3.5,91,0.00,CLR,BKN,0.00,0.0,WeatherDisplay:10.37,2013-09-13 07:13:00,
2013-09-13 02:18:00,44.8,42.3,30.21,NNW,338,4.0,4.0,91,0.00,CLR,BKN,0.00,0.0,WeatherDisplay:10.37,2013-09-13 07:18:00,
2013-09-13 02:23:00,44.6,42.1,30.22,NNW,338,4.6,4.6,91,0.00,CLR,BKN,0.00,0.0,WeatherDisplay:10.37,2013-09-13 07:23:00,
2013-09-13 02:28:00,44.5,42.0,30.22,NNW,338,7.0,7.0,91,0.00,CLR,BKN,0.00,0.0,WeatherDisplay:10.37,2013-09-13 07:28:00,
2013-09-13 02:33:00,44.2,41.7,30.21,NNW,342,4.6,4.6,91,0.00,CLR,BKN,0.00,0.0,WeatherDisplay:10.37,2013-09-13 07:33:00,
2013-09-13 02:38:00,44.1,41.6,30.22,NNW,345,5.8,5.8,91,0.00,CLR,BKN,0.00,0.0,WeatherDisplay:10.37,2013-09-13 07:38:00,
2013-09-13 02:44:00,43.9,41.4,30.22,NNW,346,5.0,5.0,91,0.00,CLR,BKN,0.00,0.0,WeatherDisplay:10.37,2013-09-13 07:44:00,
2013-09-13 02:49:00,43.8,41.3,30.22,NNW,346,6.0,6.0,91,0.00,CLR,BKN,0.00,0.0,WeatherDisplay:10.37,2013-09-13 07:49:00,
2013-09-13 02:54:00,43.6,41.1,30.22,NNW,346,5.8,5.8,91,0.00,CLR,BKN,0.00,0.0,WeatherDisplay:10.37,2013-09-13 07:54:00,
2013-09-13 02:59:00,43.5,41.0,30.22,NNW,346,5.8,5.8,91,0.00,CLR,BKN,0.00,0.0,WeatherDisplay:10.37,2013-09-13 07:59:00,
2013-09-13 03:04:00,43.3,41.1,30.22,NNW,346,4.6,4.6,92,0.00,CLR,BKN,0.00,0.0,WeatherDisplay:10.37,2013-09-13 08:04:00,
2013-09-13 03:09:00,43.2,41.0,30.22,NNW,346,5.8,5.8,92,0.00,CLR,BKN,0.00,0.0,WeatherDisplay:10.37,2013-09-13 08:09:00,
2013-09-13 03:14:00,43.2,41.0,30.22,NNW,346,3.5,3.5,92,0.00,CLR,BKN,0.00,0.0,WeatherDisplay:10.37,2013-09-13 08:14:00,
2013-09-13 03:20:00,43.1,40.9,30.22,NNW,346,3.5,3.5,92,0.00,CLR,BKN,0.00,0.0,WeatherDisplay:10.37,2013-09-13 08:20:00,
2013-09-13 03:25:00,42.9,40.7,30.22,NNW,346,3.0,5.0,92,0.00,CLR,BKN,0.00,0.0,WeatherDisplay:10.37,2013-09-13 08:25:00,
2013-09-13 03:30:00,42.9,40.7,30.22,NNW,346,5.8,5.8,92,0.00,CLR,BKN,0.00,0.0,WeatherDisplay:10.37,2013-09-13 08:30:00,
2013-09-13 03:35:00,42.8,40.6,30.22,NNW,346,3.0,6.0,92,0.00,CLR,BKN,0.00,0.0,WeatherDisplay:10.37,2013-09-13 08:35:00,
2013-09-13 03:40:00,42.8,40.6,30.22,NNW,346,4.6,4.6,92,0.00,CLR,BKN,0.00,0.0,WeatherDisplay:10.37,2013-09-13 08:40:00,
2013-09-13 03:45:00,42.6,40.4,30.23,NNW,346,3.0,5.0,92,0.00,CLR,BKN,0.00,0.0,WeatherDisplay:10.37,2013-09-13 08:45:00,
2013-09-13 03:50:00,42.5,40.3,30.22,NNW,346,3.5,3.5,92,0.00,CLR,BKN,0.00,0.0,WeatherDisplay:10.37,2013-09-13 08:50:00,
2013-09-13 03:55:00,42.3,40.4,30.22,NNW,346,5.0,5.0,93,0.00,CLR,BKN,0.00,0.0,WeatherDisplay:10.37,2013-09-13 08:55:00,
2013-09-13 04:00:00,42.3,40.1,30.22,NNW,346,2.3,2.3,92,0.00,CLR,BKN,0.00,0.0,WeatherDisplay:10.37,2013-09-13 09:00:00,
2013-09-13 04:05:00,42.1,39.9,30.22,NNW,346,3.5,3.5,92,0.00,CLR,BKN,0.00,0.0,WeatherDisplay:10.37,2013-09-13 09:05:00,
2013-09-13 04:10:00,41.9,39.7,30.22,NNW,346,3.5,3.5,92,0.00,CLR,BKN,0.00,0.0,WeatherDisplay:10.37,2013-09-13 09:10:00,
2013-09-13 04:15:00,41.8,39.6,30.22,NNW,346,3.0,3.0,92,0.00,CLR,BKN,0.00,0.0,WeatherDisplay:10.37,2013-09-13 09:15:00,
2013-09-13 04:20:00,41.5,39.3,30.23,NNW,346,1.2,0.0,92,0.00,CLR,BKN,0.00,0.0,WeatherDisplay:10.37,2013-09-13 09:20:00,
2013-09-13 04:26:00,41.3,39.2,30.23,NNW,346,0.0,0.0,92,0.00,CLR,BKN,0.00,0.0,WeatherDisplay:10.37,2013-09-13 09:26:00,
2013-09-13 04:31:00,41.2,39.1,30.23,NNW,346,0.0,0.0,92,0.00,CLR,BKN,0.00,0.0,WeatherDisplay:10.37,2013-09-13 09:31:00,
2013-09-13 04:36:00,41.1,39.0,30.23,NNW,346,0.0,0.0,92,0.00,CLR,BKN,0.00,0.0,WeatherDisplay:10.37,2013-09-13 09:36:00,
2013-09-13 04:41:00,40.8,38.7,30.23,NNW,346,0.0,0.0,92,0.00,CLR,BKN,0.00,0.0,WeatherDisplay:10.37,2013-09-13 09:41:00,
2013-09-13 04:46:00,40.6,38.5,30.23,NNW,346,0.0,0.0,92,0.00,CLR,BKN,0.00,0.0,WeatherDisplay:10.37,2013-09-13 09:46:00,
2013-09-13 04:51:00,40.6,38.5,30.23,NNW,346,0.0,0.0,92,0.00,CLR,BKN,0.00,0.0,WeatherDisplay:10.37,2013-09-13 09:51:00,
2013-09-13 04:56:00,40.5,38.4,30.23,NNW,346,2.0,2.0,92,0.00,CLR,BKN,0.00,0.0,WeatherDisplay:10.37,2013-09-13 09:56:00,
2013-09-13 05:01:00,40.3,38.2,30.23,NNW,346,3.5,3.5,92,0.00,CLR,BKN,0.00,0.0,WeatherDisplay:10.37,2013-09-13 10:01:00,
2013-09-13 05:07:00,40.3,38.4,30.24,NNW,346,3.5,3.5,93,0.00,CLR,BKN,0.00,0.0,WeatherDisplay:10.37,2013-09-13 10:07:00,
2013-09-13 05:12:00,40.3,38.4,30.24,NNW,346,5.0,5.0,93,0.00,CLR,BKN,0.00,0.0,WeatherDisplay:10.37,2013-09-13 10:12:00,
2013-09-13 05:17:00,40.3,38.4,30.24,NNW,346,5.8,5.8,93,0.00,CLR,BKN,0.00,0.0,WeatherDisplay:10.37,2013-09-13 10:17:00,
2013-09-13 05:22:00,40.3,38.7,30.24,NNW,346,4.6,4.6,94,0.00,CLR,BKN,0.00,0.0,WeatherDisplay:10.37,2013-09-13 10:22:00,
2013-09-13 05:27:00,40.3,38.7,30.24,NNW,346,4.6,4.6,94,0.00,CLR,BKN,0.00,0.0,WeatherDisplay:10.37,2013-09-13 10:27:00,
2013-09-13 05:32:00,40.3,38.7,30.24,NNW,346,4.6,4.6,94,0.00,CLR,BKN,0.00,0.0,WeatherDisplay:10.37,2013-09-13 10:32:00,
2013-09-13 05:37:00,40.3,38.7,30.24,NNW,346,5.8,5.8,94,0.00,CLR,BKN,0.00,0.0,WeatherDisplay:10.37,2013-09-13 10:37:00,
2013-09-13 05:43:00,40.2,38.6,30.25,NNW,346,5.8,5.8,94,0.00,CLR,BKN,0.00,0.0,WeatherDisplay:10.37,2013-09-13 10:43:00,
2013-09-13 05:48:00,40.2,38.6,30.24,NNW,346,5.8,5.8,94,0.00,CLR,BKN,0.00,0.0,WeatherDisplay:10.37,2013-09-13 10:48:00,
2013-09-13 05:53:00,40.1,38.5,30.25,NNW,346,5.0,5.0,94,0.00,CLR,BKN,0.00,0.0,WeatherDisplay:10.37,2013-09-13 10:53:00,
2013-09-13 05:58:00,40.1,38.5,30.25,NNW,346,4.6,4.6,94,0.00,CLR,BKN,0.00,0.0,WeatherDisplay:10.37,2013-09-13 10:58:00,
2013-09-13 06:03:00,39.9,38.3,30.25,NNW,346,3.5,3.5,94,0.00,CLR,BKN,0.00,0.0,WeatherDisplay:10.37,2013-09-13 11:03:00,
2013-09-13 06:08:00,39.9,38.3,30.25,NNW,346,3.5,3.5,94,0.00,CLR,BKN,0.00,0.0,WeatherDisplay:10.37,2013-09-13 11:08:00,
2013-09-13 06:13:00,39.8,38.2,30.25,NNW,346,3.0,3.0,94,0.00,CLR,BKN,0.00,0.0,WeatherDisplay:10.37,2013-09-13 11:13:00,
2013-09-13 06:18:00,39.6,38.0,30.25,NNW,346,3.5,3.5,94,0.00,CLR,BKN,0.00,0.0,WeatherDisplay:10.37,2013-09-13 11:18:00,
2013-09-13 06:24:00,39.5,37.9,30.25,NNW,346,0.0,0.0,94,0.00,CLR,BKN,0.00,0.0,WeatherDisplay:10.37,2013-09-13 11:24:00,
2013-09-13 06:29:00,39.3,37.7,30.25,NNW,346,0.0,0.0,94,0.00,CLR,BKN,0.00,0.0,WeatherDisplay:10.37,2013-09-13 11:29:00,
2013-09-13 06:34:00,39.2,37.6,30.25,NNW,346,2.3,2.3,94,0.00,CLR,BKN,0.00,0.0,WeatherDisplay:10.37,2013-09-13 11:34:00,
2013-09-13 06:39:00,39.2,37.3,30.25,NNW,346,0.0,0.0,93,0.00,CLR,BKN,0.00,0.0,WeatherDisplay:10.37,2013-09-13 11:39:00,
2013-09-13 06:44:00,39.1,37.5,30.26,NNW,346,0.0,0.0,94,0.00,CLR,BKN,0.00,0.0,WeatherDisplay:10.37,2013-09-13 11:44:00,
2013-09-13 06:49:00,39.1,37.5,30.26,NNW,346,1.2,1.2,94,0.00,CLR,BKN,0.00,0.0,WeatherDisplay:10.37,2013-09-13 11:49:00,
2013-09-13 06:54:00,38.9,37.3,30.26,NNW,346,2.3,2.3,94,0.00,CLR,BKN,0.00,0.0,WeatherDisplay:10.37,2013-09-13 11:54:00,
2013-09-13 07:00:00,38.9,37.3,30.26,NNW,346,1.2,0.0,94,0.00,CLR,BKN,0.00,0.0,WeatherDisplay:10.37,2013-09-13 12:00:00,
2013-09-13 07:05:00,38.9,37.3,30.26,NNW,346,1.0,3.0,94,0.00,CLR,BKN,0.00,0.0,WeatherDisplay:10.37,2013-09-13 12:05:00,
2013-09-13 07:10:00,38.9,37.3,30.26,NNW,346,1.2,1.2,94,0.00,CLR,BKN,0.00,0.0,WeatherDisplay:10.37,2013-09-13 12:10:00,
2013-09-13 07:15:00,39.1,37.8,30.26,NNW,346,1.0,2.0,95,0.00,CLR,BKN,0.00,0.0,WeatherDisplay:10.37,2013-09-13 12:15:00,
2013-09-13 07:20:00,39.1,37.8,30.26,NNW,346,2.3,2.3,95,0.00,CLR,BKN,0.00,0.0,WeatherDisplay:10.37,2013-09-13 12:20:00,
2013-09-13 07:25:00,39.2,37.9,30.26,NNW,346,3.5,3.5,95,0.00,CLR,BKN,0.00,0.0,WeatherDisplay:10.37,2013-09-13 12:25:00,
2013-09-13 07:30:00,39.3,38.0,30.26,NNW,346,2.3,2.3,95,0.00,CLR,BKN,0.00,0.0,WeatherDisplay:10.37,2013-09-13 12:30:00,
2013-09-13 07:35:00,39.3,38.0,30.26,NNW,346,0.0,0.0,95,0.00,CLR,BKN,0.00,0.0,WeatherDisplay:10.37,2013-09-13 12:35:00,
2013-09-13 07:40:00,39.5,38.5,30.26,NNW,346,0.0,0.0,96,0.00,CLR,BKN,0.00,0.0,WeatherDisplay:10.37,2013-09-13 12:40:00,
2013-09-13 07:45:00,39.6,38.6,30.26,NNW,346,0.0,0.0,96,0.00,CLR,BKN,0.00,0.0,WeatherDisplay:10.37,2013-09-13 12:45:00,
2013-09-13 07:50:00,39.6,38.6,30.26,NNW,346,0.0,0.0,96,0.00,CLR,BKN,0.00,0.0,WeatherDisplay:10.37,2013-09-13 12:50:00,
2013-09-13 07:56:00,39.8,38.8,30.26,NNW,346,0.0,0.0,96,0.00,CLR,BKN,0.00,0.0,WeatherDisplay:10.37,2013-09-13 12:56:00,
2013-09-13 08:01:00,39.9,38.9,30.26,NNW,346,0.0,0.0,96,0.00,OVC,BKN,0.00,0.0,WeatherDisplay:10.37,2013-09-13 13:01:00,
2013-09-13 08:06:00,40.1,39.1,30.26,NNW,346,0.0,0.0,96,0.00,OVC,BKN,0.00,0.0,WeatherDisplay:10.37,2013-09-13 13:06:00,
2013-09-13 08:11:00,40.3,39.5,30.26,NNW,346,0.0,0.0,97,0.00,OVC,BKN,0.00,0.0,WeatherDisplay:10.37,2013-09-13 13:11:00,
2013-09-13 08:16:00,40.8,40.0,30.26,NNW,346,0.0,0.0,97,0.00,OVC,BKN,0.00,0.0,WeatherDisplay:10.37,2013-09-13 13:16:00,
2013-09-13 08:21:00,40.9,40.4,30.26,NNW,346,0.0,0.0,98,0.00,OVC,BKN,0.00,0.0,WeatherDisplay:10.37,2013-09-13 13:21:00,
2013-09-13 08:26:00,41.2,40.7,30.26,NNW,346,0.0,0.0,98,0.00,OVC,BKN,0.00,0.0,WeatherDisplay:10.37,2013-09-13 13:26:00,
2013-09-13 08:31:00,41.6,41.1,30.26,NNW,346,1.0,0.0,98,0.00,OVC,BKN,0.00,0.0,WeatherDisplay:10.37,2013-09-13 13:31:00,
2013-09-13 08:37:00,42.5,42.2,30.26,NNW,346,0.0,0.0,99,0.00,OVC,BKN,0.00,0.0,WeatherDisplay:10.37,2013-09-13 13:37:00,
2013-09-13 08:42:00,43.2,42.9,30.26,NNW,346,2.0,2.0,99,0.00,OVC,BKN,0.00,0.0,WeatherDisplay:10.37,2013-09-13 13:42:00,
2013-09-13 08:47:00,43.9,43.6,30.26,NNW,346,2.0,2.0,99,0.00,OVC,BKN,0.00,0.0,WeatherDisplay:10.37,2013-09-13 13:47:00,
2013-09-13 08:52:00,44.8,44.8,30.26,NNW,346,2.3,2.3,100,0.00,OVC,BKN,0.00,0.0,WeatherDisplay:10.37,2013-09-13 13:52:00,
2013-09-13 08:57:00,45.5,45.5,30.26,NNW,346,3.5,3.5,100,0.00,OVC,BKN,0.00,0.0,WeatherDisplay:10.37,2013-09-13 13:57:00,
2013-09-13 09:02:00,46.2,46.2,30.26,NNW,346,3.5,3.5,100,0.00,OVC,BKN,0.00,0.0,WeatherDisplay:10.37,2013-09-13 14:02:00,
2013-09-13 09:07:00,46.7,46.7,30.26,NNW,346,1.0,1.0,100,0.00,OVC,BKN,0.00,0.0,WeatherDisplay:10.37,2013-09-13 14:07:00,
2013-09-13 09:13:00,47.1,47.1,30.27,NNW,346,1.2,0.0,100,0.00,OVC,BKN,0.00,0.0,WeatherDisplay:10.37,2013-09-13 14:13:00,
2013-09-13 09:18:00,47.7,47.7,30.27,NNW,346,3.5,3.5,100,0.00,OVC,BKN,0.00,0.0,WeatherDisplay:10.37,2013-09-13 14:18:00,
2013-09-13 09:23:00,48.2,48.2,30.27,NNW,346,2.3,2.3,100,0.00,OVC,BKN,0.00,0.0,WeatherDisplay:10.37,2013-09-13 14:23:00,
2013-09-13 09:28:00,48.5,48.5,30.27,NNW,346,1.2,0.0,100,0.00,OVC,BKN,0.00,0.0,WeatherDisplay:10.37,2013-09-13 14:28:00,
2013-09-13 09:33:00,48.8,48.8,30.27,NNW,346,2.0,2.0,100,0.00,OVC,BKN,0.00,0.0,WeatherDisplay:10.37,2013-09-13 14:33:00,
2013-09-13 09:38:00,49.1,49.1,30.28,NNW,346,2.3,2.3,100,0.00,OVC,BKN,0.00,0.0,WeatherDisplay:10.37,2013-09-13 14:38:00,
2013-09-13 09:43:00,49.4,49.4,30.28,NNW,346,5.0,5.0,100,0.00,OVC,BKN,0.00,0.0,WeatherDisplay:10.37,2013-09-13 14:43:00,
2013-09-13 09:48:00,49.4,49.4,30.28,NNE,23,3.5,3.5,100,0.00,OVC,BKN,0.00,0.0,WeatherDisplay:10.37,2013-09-13 14:48:00,
2013-09-13 09:54:00,49.5,49.5,30.28,NE,55,4.0,4.0,100,0.00,OVC,BKN,0.00,0.0,WeatherDisplay:10.37,2013-09-13 14:54:00,
2013-09-13 09:59:00,49.6,48.5,30.28,NE,51,4.6,4.6,96,0.00,OVC,BKN,0.00,0.0,WeatherDisplay:10.37,2013-09-13 14:59:00,
2013-09-13 10:04:00,49.9,46.8,30.28,NE,53,5.0,5.0,89,0.00,OVC,BKN,0.00,0.0,WeatherDisplay:10.37,2013-09-13 15:04:00,
2013-09-13 10:09:00,50.5,46.2,30.28,NE,55,8.1,8.1,85,0.00,OVC,BKN,0.00,0.0,WeatherDisplay:10.37,2013-09-13 15:09:00,
2013-09-13 10:14:00,51.3,45.3,30.28,ENE,71,5.8,5.8,80,0.00,OVC,BKN,0.00,0.0,WeatherDisplay:10.37,2013-09-13 15:14:00,
2013-09-13 10:19:00,51.9,45.3,30.28,NE,50,4.6,4.6,78,0.00,OVC,BKN,0.00,0.0,WeatherDisplay:10.37,2013-09-13 15:19:00,
2013-09-13 10:24:00,52.3,45.0,30.28,NE,50,3.5,3.5,76,0.00,OVC,BKN,0.00,0.0,WeatherDisplay:10.37,2013-09-13 15:24:00,
2013-09-13 10:30:00,52.8,45.8,30.27,NE,50,4.0,4.0,77,0.00,OVC,BKN,0.00,0.0,WeatherDisplay:10.37,2013-09-13 15:30:00,
2013-09-13 10:35:00,53.5,44.3,30.27,NE,50,2.0,6.0,71,0.00,OVC,BKN,0.00,0.0,WeatherDisplay:10.37,2013-09-13 15:35:00,
2013-09-13 10:40:00,54.4,45.6,30.27,NE,51,4.6,4.6,72,0.00,OVC,BKN,0.00,0.0,WeatherDisplay:10.37,2013-09-13 15:40:00,
2013-09-13 10:45:00,54.7,44.0,30.27,NE,51,2.0,8.0,67,0.00,OVC,BKN,0.00,0.0,WeatherDisplay:10.37,2013-09-13 15:45:00,
2013-09-13 10:50:00,55.7,45.7,30.27,ENE,64,6.0,6.3,69,0.00,OVC,BKN,0.00,0.0,WeatherDisplay:10.37,2013-09-13 15:50:00,
2013-09-13 10:55:00,56.0,45.2,30.27,ENE,65,8.0,8.0,67,0.00,OVC,BKN,0.00,0.0,WeatherDisplay:10.37,2013-09-13 15:55:00,
2013-09-13 11:00:00,55.4,43.4,30.27,NE,54,4.0,4.0,64,0.00,OVC,BKN,0.00,0.0,WeatherDisplay:10.37,2013-09-13 16:00:00,
2013-09-13 11:05:00,55.7,45.3,30.27,ENE,61,2.3,2.3,68,0.00,OVC,BKN,0.00,0.0,WeatherDisplay:10.37,2013-09-13 16:05:00,
2013-09-13 11:10:00,55.9,44.7,30.27,ENE,72,8.1,8.1,66,0.00,OVC,BKN,0.00,0.0,WeatherDisplay:10.37,2013-09-13 16:10:00,
2013-09-13 11:15:00,55.6,44.4,30.27,ENE,66,3.5,3.5,66,0.00,OVC,BKN,0.00,0.0,WeatherDisplay:10.37,2013-09-13 16:15:00,
2013-09-13 11:20:00,55.9,43.9,30.27,NNE,15,9.2,9.2,64,0.00,OVC,BKN,0.00,0.0,WeatherDisplay:10.37,2013-09-13 16:20:00,
2013-09-13 11:26:00,56.2,44.2,30.27,NE,50,7.0,7.0,64,0.00,OVC,BKN,0.00,0.0,WeatherDisplay:10.37,2013-09-13 16:26:00,
2013-09-13 11:31:00,57.0,45.7,30.27,East,88,10.0,10.0,66,0.00,OVC,BKN,0.00,0.0,WeatherDisplay:10.37,2013-09-13 16:31:00,
2013-09-13 11:36:00,58.6,45.6,30.26,East,81,11.5,11.5,62,0.00,OVC,BKN,0.00,0.0,WeatherDisplay:10.37,2013-09-13 16:36:00,
2013-09-13 11:41:00,58.3,45.8,30.27,NE,54,5.8,5.8,63,0.00,OVC,BKN,0.00,0.0,WeatherDisplay:10.37,2013-09-13 16:41:00,
2013-09-13 11:46:00,57.2,46.3,30.27,North,350,9.0,9.0,67,0.00,OVC,BKN,0.00,0.0,WeatherDisplay:10.37,2013-09-13 16:46:00,
2013-09-13 11:51:00,56.6,45.0,30.26,North,360,13.0,13.0,65,0.00,OVC,BKN,0.00,0.0,WeatherDisplay:10.37,2013-09-13 16:51:00,
2013-09-13 11:56:00,56.3,45.1,30.26,North,4,10.0,10.0,66,0.00,OVC,BKN,0.00,0.0,WeatherDisplay:10.37,2013-09-13 16:56:00,
2013-09-13 12:01:00,56.0,44.8,30.26,North,9,9.2,9.2,66,0.00,OVC,BKN,0.00,0.0,WeatherDisplay:10.37,2013-09-13 17:01:00,
2013-09-13 12:07:00,55.7,43.7,30.26,NNE,21,10.4,10.4,64,0.00,OVC,BKN,0.00,0.0,WeatherDisplay:10.37,2013-09-13 17:07:00,
2013-09-13 12:12:00,55.6,44.0,30.25,NNE,25,6.9,6.9,65,0.00,OVC,BKN,0.00,0.0,WeatherDisplay:10.37,2013-09-13 17:12:00,
2013-09-13 12:17:00,56.2,45.0,30.25,NNE,25,1.2,0.0,66,0.00,OVC,BKN,0.00,0.0,WeatherDisplay:10.37,2013-09-13 17:17:00,
2013-09-13 12:22:00,56.9,43.6,30.25,NNE,28,4.6,4.6,61,0.00,OVC,BKN,0.00,0.0,WeatherDisplay:10.37,2013-09-13 17:22:00,
2013-09-13 12:27:00,57.8,45.3,30.25,NNE,29,3.5,3.5,63,0.00,OVC,BKN,0.00,0.0,WeatherDisplay:10.37,2013-09-13 17:27:00,
2013-09-13 12:32:00,58.0,45.5,30.25,NNW,338,9.2,9.2,63,0.00,OVC,BKN,0.00,0.0,WeatherDisplay:10.37,2013-09-13 17:32:00,
2013-09-13 12:37:00,57.6,44.2,30.25,NNW,342,9.2,9.2,61,0.00,OVC,BKN,0.00,0.0,WeatherDisplay:10.37,2013-09-13 17:37:00,
2013-09-13 12:43:00,57.3,44.8,30.25,NNW,340,4.6,4.6,63,0.00,OVC,BKN,0.00,0.0,WeatherDisplay:10.37,2013-09-13 17:43:00,
2013-09-13 12:48:00,56.9,44.0,30.25,NNW,341,4.0,4.0,62,0.00,OVC,BKN,0.00,0.0,WeatherDisplay:10.37,2013-09-13 17:48:00,
2013-09-13 12:53:00,58.0,44.6,30.25,NNW,332,5.0,5.0,61,0.00,OVC,BKN,0.00,0.0,WeatherDisplay:10.37,2013-09-13 17:53:00,
2013-09-13 12:58:00,58.9,46.7,30.25,North,351,7.0,7.0,64,0.00,OVC,BKN,0.00,0.0,WeatherDisplay:10.37,2013-09-13 17:58:00,
2013-09-13 13:03:00,58.6,43.4,30.25,North,352,4.6,4.6,57,0.00,OVC,BKN,0.00,0.0,WeatherDisplay:10.37,2013-09-13 18:03:00,
2013-09-13 13:08:00,58.0,44.2,30.24,North,352,2.3,2.3,60,0.00,OVC,BKN,0.00,0.0,WeatherDisplay:10.37,2013-09-13 18:08:00,
2013-09-13 13:13:00,58.0,44.2,30.24,North,352,7.0,7.0,60,0.00,OVC,BKN,0.00,0.0,WeatherDisplay:10.37,2013-09-13 18:13:00,
2013-09-13 13:18:00,57.6,44.7,30.24,North,352,3.5,3.5,62,0.00,OVC,BKN,0.00,0.0,WeatherDisplay:10.37,2013-09-13 18:18:00,
2013-09-13 13:24:00,58.4,45.0,30.24,North,359,7.0,7.0,61,0.00,OVC,BKN,0.00,0.0,WeatherDisplay:10.37,2013-09-13 18:24:00,
2013-09-13 13:29:00,58.9,42.3,30.23,NNE,32,4.6,4.6,54,0.00,OVC,BKN,0.00,0.0,WeatherDisplay:10.37,2013-09-13 18:29:00,
2013-09-13 13:34:00,59.5,44.2,30.23,NNE,29,3.5,3.5,57,0.00,OVC,BKN,0.00,0.0,WeatherDisplay:10.37,2013-09-13 18:34:00,
2013-09-13 13:39:00,59.6,46.1,30.23,NE,40,6.9,6.9,61,0.00,OVC,BKN,0.00,0.0,WeatherDisplay:10.37,2013-09-13 18:39:00,
2013-09-13 13:44:00,59.8,45.4,30.23,ENE,58,6.0,6.0,59,0.00,OVC,BKN,0.00,0.0,WeatherDisplay:10.37,2013-09-13 18:44:00,
2013-09-13 13:49:00,58.9,45.0,30.22,NNE,17,1.2,1.2,60,0.00,OVC,BKN,0.00,0.0,WeatherDisplay:10.37,2013-09-13 18:49:00,
2013-09-13 13:54:00,58.6,44.8,30.22,NNE,25,9.2,9.2,60,0.00,OVC,BKN,0.00,0.0,WeatherDisplay:10.37,2013-09-13 18:54:00,
2013-09-13 14:00:00,58.3,45.8,30.22,NE,34,3.5,3.5,63,0.00,OVC,BKN,0.00,0.0,WeatherDisplay:10.37,2013-09-13 19:00:00,
2013-09-13 14:05:00,58.3,44.5,30.22,NE,34,0.0,5.0,60,0.00,OVC,BKN,0.00,0.0,WeatherDisplay:10.37,2013-09-13 19:05:00,
2013-09-13 14:10:00,58.4,46.7,30.22,NNE,32,6.0,6.0,65,0.00,OVC,BKN,0.00,0.0,WeatherDisplay:10.37,2013-09-13 19:10:00,
2013-09-13 14:15:00,58.9,44.6,30.22,NNE,25,3.5,3.5,59,0.00,OVC,BKN,0.00,0.0,WeatherDisplay:10.37,2013-09-13 19:15:00,
2013-09-13 14:20:00,58.7,44.0,30.22,NNE,25,1.2,0.0,58,0.00,OVC,BKN,0.00,0.0,WeatherDisplay:10.37,2013-09-13 19:20:00,
2013-09-13 14:25:00,58.7,45.3,30.22,NNE,25,3.5,3.5,61,0.00,OVC,BKN,0.00,0.0,WeatherDisplay:10.37,2013-09-13 19:25:00,
2013-09-13 14:30:00,58.7,44.8,30.22,NNE,25,3.5,3.5,60,0.00,OVC,BKN,0.00,0.0,WeatherDisplay:10.37,2013-09-13 19:30:00,
2013-09-13 14:35:00,58.7,43.0,30.21,NNE,25,0.0,0.0,56,0.00,OVC,BKN,0.00,0.0,WeatherDisplay:10.37,2013-09-13 19:35:00,
2013-09-13 14:40:00,58.6,45.6,30.21,NNE,25,2.3,2.3,62,0.00,OVC,BKN,0.00,0.0,WeatherDisplay:10.37,2013-09-13 19:40:00,
2013-09-13 14:46:00,58.7,45.7,30.21,NNE,25,1.2,0.0,62,0.00,OVC,BKN,0.00,0.0,WeatherDisplay:10.37,2013-09-13 19:46:00,
2013-09-13 14:51:00,58.6,45.6,30.21,NNE,25,1.2,1.2,62,0.00,OVC,BKN,0.00,0.0,WeatherDisplay:10.37,2013-09-13 19:51:00,
2013-09-13 14:56:00,58.1,44.3,30.21,North,7,4.6,4.6,60,0.00,OVC,BKN,0.00,0.0,WeatherDisplay:10.37,2013-09-13 19:56:00,
2013-09-13 15:01:00,58.4,45.4,30.20,North,7,2.3,2.3,62,0.00,OVC,BKN,0.00,0.0,WeatherDisplay:10.37,2013-09-13 20:01:00,
2013-09-13 15:06:00,59.0,45.1,30.20,North,7,4.6,4.6,60,0.00,OVC,BKN,0.00,0.0,WeatherDisplay:10.37,2013-09-13 20:06:00,
2013-09-13 15:11:00,59.2,44.4,30.20,North,7,3.5,3.5,58,0.00,OVC,BKN,0.00,0.0,WeatherDisplay:10.37,2013-09-13 20:11:00,
2013-09-13 15:16:00,59.3,47.1,30.19,WNW,298,7.0,7.0,64,0.00,OVC,BKN,0.00,0.0,WeatherDisplay:10.37,2013-09-13 20:16:00,
2013-09-13 15:21:00,59.5,46.0,30.19,West,277,5.8,5.8,61,0.00,OVC,BKN,0.00,0.0,WeatherDisplay:10.37,2013-09-13 20:21:00,
2013-09-13 15:27:00,59.9,44.2,30.19,West,276,0.0,0.0,56,0.00,OVC,BKN,0.00,0.0,WeatherDisplay:10.37,2013-09-13 20:27:00,
2013-09-13 15:32:00,59.9,46.4,30.19,WSW,256,9.2,9.2,61,0.00,OVC,BKN,0.00,0.0,WeatherDisplay:10.37,2013-09-13 20:32:00,
2013-09-13 15:37:00,60.1,47.0,30.19,WSW,256,5.8,5.8,62,0.00,OVC,BKN,0.00,0.0,WeatherDisplay:10.37,2013-09-13 20:37:00,
2013-09-13 15:42:00,59.6,43.9,30.19,WSW,256,2.3,0.0,56,0.00,OVC,BKN,0.00,0.0,WeatherDisplay:10.37,2013-09-13 20:42:00,
2013-09-13 15:47:00,59.6,46.1,30.19,WSW,256,7.0,7.0,61,0.00,OVC,BKN,0.00,0.0,WeatherDisplay:10.37,2013-09-13 20:47:00,
2013-09-13 15:52:00,59.6,44.3,30.18,West,261,4.0,4.0,57,0.00,OVC,BKN,0.00,0.0,WeatherDisplay:10.37,2013-09-13 20:52:00,
2013-09-13 15:57:00,58.7,44.4,30.18,West,261,2.3,2.3,59,0.00,OVC,BKN,0.00,0.0,WeatherDisplay:10.37,2013-09-13 20:57:00,
2013-09-13 16:03:00,58.3,46.2,30.18,West,261,2.3,0.0,64,0.00,OVC,BKN,0.00,0.0,WeatherDisplay:10.37,2013-09-13 21:03:00,
2013-09-13 16:08:00,57.5,46.2,30.18,West,261,1.2,1.2,66,0.00,OVC,BKN,0.00,0.0,WeatherDisplay:10.37,2013-09-13 21:08:00,
2013-09-13 16:13:00,57.0,47.3,30.18,West,261,3.5,3.5,70,0.00,OVC,BKN,0.00,0.0,WeatherDisplay:10.37,2013-09-13 21:13:00,
2013-09-13 16:18:00,56.7,46.6,30.18,West,261,4.0,4.0,69,0.00,OVC,BKN,0.00,0.0,WeatherDisplay:10.37,2013-09-13 21:18:00,
2013-09-13 16:23:00,56.5,47.6,30.18,WSW,257,3.5,3.5,72,0.00,OVC,BKN,0.00,0.0,WeatherDisplay:10.37,2013-09-13 21:23:00,
2013-09-13 16:28:00,57.5,48.2,30.18,West,261,0.0,0.0,71,0.00,OVC,BKN,0.00,0.0,WeatherDisplay:10.37,2013-09-13 21:28:00,
2013-09-13 16:33:00,58.6,43.4,30.18,West,261,0.0,0.0,57,0.00,OVC,BKN,0.00,0.0,WeatherDisplay:10.37,2013-09-13 21:33:00,
2013-09-13 16:38:00,58.3,45.3,30.17,West,261,3.5,3.5,62,0.00,OVC,BKN,0.00,0.0,WeatherDisplay:10.37,2013-09-13 21:38:00,
2013-09-13 16:44:00,58.6,46.0,30.17,West,261,1.2,0.0,63,0.00,OVC,BKN,0.00,0.0,WeatherDisplay:10.37,2013-09-13 21:44:00,
2013-09-13 16:49:00,58.6,43.9,30.17,WSW,257,1.0,1.0,58,0.00,OVC,BKN,0.00,0.0,WeatherDisplay:10.37,2013-09-13 21:49:00,
2013-09-13 16:54:00,58.3,46.6,30.17,West,261,1.2,1.2,65,0.00,OVC,BKN,0.00,0.0,WeatherDisplay:10.37,2013-09-13 21:54:00,
2013-09-13 16:59:00,58.1,45.1,30.17,West,261,0.0,0.0,62,0.00,OVC,BKN,0.00,0.0,WeatherDisplay:10.37,2013-09-13 21:59:00,
2013-09-13 17:04:00,58.0,46.7,30.17,WSW,257,1.2,1.2,66,0.00,OVC,BKN,0.00,0.0,WeatherDisplay:10.37,2013-09-13 22:04:00,
2013-09-13 17:09:00,57.5,48.9,30.17,WSW,257,0.0,0.0,73,0.00,OVC,BKN,0.00,0.0,WeatherDisplay:10.37,2013-09-13 22:09:00,
2013-09-13 17:14:00,57.6,47.1,30.17,WSW,257,1.2,0.0,68,0.00,OVC,BKN,0.00,0.0,WeatherDisplay:10.37,2013-09-13 22:14:00,
2013-09-13 17:20:00,58.3,45.3,30.17,West,261,2.0,2.0,62,0.00,OVC,BKN,0.00,0.0,WeatherDisplay:10.37,2013-09-13 22:20:00,
2013-09-13 17:25:00,58.8,44.0,30.17,WSW,258,1.0,2.0,58,0.00,OVC,BKN,0.00,0.0,WeatherDisplay:10.37,2013-09-13 22:25:00,
2013-09-13 17:30:00,58.3,44.5,30.17,WSW,257,0.0,0.0,60,0.00,OVC,BKN,0.00,0.0,WeatherDisplay:10.37,2013-09-13 22:30:00,
2013-09-13 17:35:00,58.5,42.8,30.17,West,259,0.0,3.0,56,0.00,OVC,BKN,0.00,0.0,WeatherDisplay:10.37,2013-09-13 22:35:00,
2013-09-13 17:40:00,58.3,44.5,30.16,West,261,2.0,2.0,60,0.00,OVC,BKN,0.00,0.0,WeatherDisplay:10.37,2013-09-13 22:40:00,
2013-09-13 17:45:00,57.8,46.5,30.16,WSW,258,1.0,3.0,66,0.00,OVC,BKN,0.00,0.0,WeatherDisplay:10.37,2013-09-13 22:45:00,
2013-09-13 17:50:00,57.8,45.7,30.16,WSW,257,1.2,1.2,64,0.00,OVC,BKN,0.00,0.0,WeatherDisplay:10.37,2013-09-13 22:50:00,
2013-09-13 17:55:00,57.6,47.9,30.16,WSW,257,0.0,0.0,70,0.00,OVC,BKN,0.00,0.0,WeatherDisplay:10.37,2013-09-13 22:55:00,
2013-09-13 18:00:00,57.2,48.3,30.16,WSW,257,1.0,0.0,72,0.00,CLR,BKN,0.00,0.0,WeatherDisplay:10.37,2013-09-13 23:00:00,
2013-09-13 18:05:00,56.7,49.2,30.16,West,261,0.0,0.0,76,0.00,CLR,BKN,0.00,0.0,WeatherDisplay:10.37,2013-09-13 23:05:00,
2013-09-13 18:10:00,56.2,47.3,30.16,WSW,257,3.5,3.5,72,0.00,CLR,BKN,0.00,0.0,WeatherDisplay:10.37,2013-09-13 23:10:00,
2013-09-13 18:15:00,56.2,48.0,30.16,WSW,257,3.0,3.0,74,0.00,CLR,BKN,0.00,0.0,WeatherDisplay:10.37,2013-09-13 23:15:00,
2013-09-13 18:20:00,55.9,48.4,30.16,WSW,257,1.2,1.2,76,0.00,CLR,BKN,0.00,0.0,WeatherDisplay:10.37,2013-09-13 23:20:00,
2013-09-13 18:26:00,55.4,48.0,30.16,West,261,2.3,2.3,76,0.00,CLR,BKN,0.00,0.0,WeatherDisplay:10.37,2013-09-13 23:26:00,
2013-09-13 18:31:00,55.1,48.4,30.15,WSW,257,0.0,0.0,78,0.00,CLR,BKN,0.00,0.0,WeatherDisplay:10.37,2013-09-13 23:31:00,
2013-09-13 18:36:00,54.8,48.1,30.15,WSW,257,1.2,1.2,78,0.00,CLR,BKN,0.00,0.0,WeatherDisplay:10.37,2013-09-13 23:36:00,
2013-09-13 18:41:00,54.7,48.3,30.15,WSW,257,0.0,0.0,79,0.00,CLR,BKN,0.00,0.0,WeatherDisplay:10.37,2013-09-13 23:41:00,
2013-09-13 18:46:00,54.7,48.0,30.15,West,261,0.0,0.0,78,0.00,CLR,BKN,0.00,0.0,WeatherDisplay:10.37,2013-09-13 23:46:00,
2013-09-13 18:51:00,54.8,48.1,30.15,West,261,0.0,0.0,78,0.00,CLR,BKN,0.00,0.0,WeatherDisplay:10.37,2013-09-13 23:51:00,
2013-09-13 18:56:00,54.7,48.0,30.15,West,261,0.0,0.0,78,0.00,CLR,BKN,0.00,0.0,WeatherDisplay:10.37,2013-09-13 23:56:00,
2013-09-13 19:01:00,54.7,48.3,30.14,WSW,257,1.0,1.0,79,0.00,CLR,BKN,0.00,0.0,WeatherDisplay:10.37,2013-09-14 00:01:00,
2013-09-13 19:07:00,54.5,47.8,30.14,West,261,0.0,0.0,78,0.00,CLR,BKN,0.00,0.0,WeatherDisplay:10.37,2013-09-14 00:07:00,
2013-09-13 19:12:00,54.4,48.0,30.14,WSW,257,0.0,0.0,79,0.00,CLR,BKN,0.00,0.0,WeatherDisplay:10.37,2013-09-14 00:12:00,
2013-09-13 19:17:00,54.1,47.7,30.14,West,261,0.0,0.0,79,0.00,CLR,BKN,0.00,0.0,WeatherDisplay:10.37,2013-09-14 00:17:00,
2013-09-13 19:22:00,53.9,47.9,30.14,WSW,257,0.0,0.0,80,0.00,CLR,BKN,0.00,0.0,WeatherDisplay:10.37,2013-09-14 00:22:00,
2013-09-13 19:27:00,53.6,47.6,30.14,WSW,257,0.0,0.0,80,0.00,CLR,BKN,0.00,0.0,WeatherDisplay:10.37,2013-09-14 00:27:00,
2013-09-13 19:32:00,53.3,47.6,30.13,WSW,257,3.0,3.0,81,0.00,CLR,BKN,0.00,0.0,WeatherDisplay:10.37,2013-09-14 00:32:00,
2013-09-13 19:37:00,53.1,47.4,30.13,WSW,257,3.0,3.0,81,0.00,CLR,BKN,0.00,0.0,WeatherDisplay:10.37,2013-09-14 00:37:00,
2013-09-13 19:43:00,52.8,47.5,30.13,WSW,257,2.3,2.3,82,0.00,CLR,BKN,0.00,0.0,WeatherDisplay:10.37,2013-09-14 00:43:00,
2013-09-13 19:48:00,52.5,47.2,30.13,West,261,0.0,0.0,82,0.00,CLR,BKN,0.00,0.0,WeatherDisplay:10.37,2013-09-14 00:48:00,
2013-09-13 19:53:00,52.2,47.2,30.13,West,261,0.0,0.0,83,0.00,CLR,BKN,0.00,0.0,WeatherDisplay:10.37,2013-09-14 00:53:00,
2013-09-13 19:58:00,51.9,46.9,30.13,West,261,3.0,3.0,83,0.00,CLR,BKN,0.00,0.0,WeatherDisplay:10.37,2013-09-14 00:58:00,
2013-09-13 20:03:00,51.6,46.9,30.14,WSW,257,0.0,0.0,84,0.00,CLR,BKN,0.00,0.0,WeatherDisplay:10.37,2013-09-14 01:03:00,
2013-09-13 20:08:00,51.3,46.6,30.14,West,261,0.0,0.0,84,0.00,CLR,BKN,0.00,0.0,WeatherDisplay:10.37,2013-09-14 01:08:00,
2013-09-13 20:13:00,51.0,46.3,30.14,West,261,2.3,2.3,84,0.00,CLR,BKN,0.00,0.0,WeatherDisplay:10.37,2013-09-14 01:13:00,
2013-09-13 20:18:00,50.7,46.4,30.14,West,261,2.3,2.3,85,0.00,CLR,BKN,0.00,0.0,WeatherDisplay:10.37,2013-09-14 01:18:00,
2013-09-13 20:24:00,50.4,46.1,30.14,WSW,257,2.3,2.3,85,0.00,CLR,BKN,0.00,0.0,WeatherDisplay:10.37,2013-09-14 01:24:00,
2013-09-13 20:29:00,50.2,46.2,30.14,West,261,0.0,0.0,86,0.00,CLR,BKN,0.00,0.0,WeatherDisplay:10.37,2013-09-14 01:29:00,
2013-09-13 20:34:00,49.9,45.9,30.14,WSW,257,0.0,0.0,86,0.00,CLR,BKN,0.00,0.0,WeatherDisplay:10.37,2013-09-14 01:34:00,
2013-09-13 20:39:00,49.6,45.6,30.13,West,261,2.3,2.3,86,0.00,CLR,BKN,0.00,0.0,WeatherDisplay:10.37,2013-09-14 01:39:00,
2013-09-13 20:44:00,49.4,45.7,30.13,West,261,2.3,2.3,87,0.00,CLR,BKN,0.00,0.0,WeatherDisplay:10.37,2013-09-14 01:44:00,
2013-09-13 20:49:00,49.1,45.4,30.13,WSW,257,0.0,0.0,87,0.00,CLR,BKN,0.00,0.0,WeatherDisplay:10.37,2013-09-14 01:49:00,
2013-09-13 20:54:00,48.9,44.9,30.13,West,261,0.0,0.0,86,0.00,CLR,BKN,0.00,0.0,WeatherDisplay:10.37,2013-09-14 01:54:00,
2013-09-13 21:00:00,48.8,45.1,30.13,WSW,257,0.0,0.0,87,0.00,CLR,BKN,0.00,0.0,WeatherDisplay:10.37,2013-09-14 02:00:00,
2013-09-13 21:05:00,48.6,44.9,30.13,West,260,0.0,0.0,87,0.00,CLR,BKN,0.00,0.0,WeatherDisplay:10.37,2013-09-14 02:05:00,
2013-09-13 21:10:00,48.3,44.9,30.14,WSW,257,0.0,0.0,88,0.00,CLR,BKN,0.00,0.0,WeatherDisplay:10.37,2013-09-14 02:10:00,
2013-09-13 21:15:00,48.2,44.8,30.13,West,260,1.0,2.0,88,0.00,CLR,BKN,0.00,0.0,WeatherDisplay:10.37,2013-09-14 02:15:00,
2013-09-13 21:20:00,47.9,44.5,30.13,WSW,257,2.3,2.3,88,0.00,CLR,BKN,0.00,0.0,WeatherDisplay:10.37,2013-09-14 02:20:00,
2013-09-13 21:25:00,47.6,44.2,30.13,West,261,3.0,3.0,88,0.00,CLR,BKN,0.00,0.0,WeatherDisplay:10.37,2013-09-14 02:25:00,
2013-09-13 21:30:00,47.4,44.0,30.12,West,261,3.5,3.5,88,0.00,CLR,BKN,0.00,0.0,WeatherDisplay:10.37,2013-09-14 02:30:00,
2013-09-13 21:35:00,47.1,43.7,30.12,West,261,3.5,3.5,88,0.00,CLR,BKN,0.00,0.0,WeatherDisplay:10.37,2013-09-14 02:35:00,
2013-09-13 21:40:00,46.8,43.7,30.12,West,261,2.3,2.3,89,0.00,CLR,BKN,0.00,0.0,WeatherDisplay:10.37,2013-09-14 02:40:00,
2013-09-13 21:46:00,46.7,43.6,30.12,West,261,3.5,3.5,89,0.00,CLR,BKN,0.00,0.0,WeatherDisplay:10.37,2013-09-14 02:46:00,
2013-09-13 21:51:00,46.5,43.1,30.12,West,261,2.0,2.0,88,0.00,CLR,BKN,0.00,0.0,WeatherDisplay:10.37,2013-09-14 02:51:00,
2013-09-13 21:56:00,46.4,43.3,30.12,WSW,257,3.5,3.5,89,0.00,CLR,BKN,0.00,0.0,WeatherDisplay:10.37,2013-09-14 02:56:00,
2013-09-13 22:01:00,46.2,43.4,30.12,WSW,257,3.5,3.5,90,0.00,CLR,BKN,0.00,0.0,WeatherDisplay:10.37,2013-09-14 03:01:00,
2013-09-13 22:06:00,46.2,43.4,30.12,West,261,3.5,3.5,90,0.00,CLR,BKN,0.00,0.0,WeatherDisplay:10.37,2013-09-14 03:06:00,
2013-09-13 22:11:00,46.1,43.3,30.12,West,261,3.5,3.5,90,0.00,CLR,BKN,0.00,0.0,WeatherDisplay:10.37,2013-09-14 03:11:00,
2013-09-13 22:16:00,45.8,43.3,30.12,West,261,4.0,4.0,91,0.00,CLR,BKN,0.00,0.0,WeatherDisplay:10.37,2013-09-14 03:16:00,
2013-09-13 22:21:00,45.7,43.2,30.12,West,261,3.5,3.5,91,0.00,CLR,BKN,0.00,0.0,WeatherDisplay:10.37,2013-09-14 03:21:00,
2013-09-13 22:27:00,45.5,43.0,30.11,West,261,2.3,2.3,91,0.00,CLR,BKN,0.00,0.0,WeatherDisplay:10.37,2013-09-14 03:27:00,
2013-09-13 22:32:00,45.4,42.9,30.11,West,261,3.5,3.5,91,0.00,CLR,BKN,0.00,0.0,WeatherDisplay:10.37,2013-09-14 03:32:00,
2013-09-13 22:37:00,45.2,42.7,30.12,West,261,3.5,3.5,91,0.00,CLR,BKN,0.00,0.0,WeatherDisplay:10.37,2013-09-14 03:37:00,
2013-09-13 22:42:00,45.2,42.7,30.11,West,261,3.5,3.5,91,0.00,CLR,BKN,0.00,0.0,WeatherDisplay:10.37,2013-09-14 03:42:00,
2013-09-13 22:47:00,45.1,42.9,30.11,West,261,3.5,3.5,92,0.00,CLR,BKN,0.00,0.0,WeatherDisplay:10.37,2013-09-14 03:47:00,
2013-09-13 22:52:00,44.9,42.7,30.11,West,261,3.5,3.5,92,0.00,CLR,BKN,0.00,0.0,WeatherDisplay:10.37,2013-09-14 03:52:00,
2013-09-13 22:57:00,44.9,42.7,30.12,West,261,3.5,3.5,92,0.00,CLR,BKN,0.00,0.0,WeatherDisplay:10.37,2013-09-14 03:57:00,
2013-09-13 23:01:00,44.8,42.6,30.11,West,261,3.5,3.5,92,0.00,CLR,BKN,0.00,0.0,WeatherDisplay:10.37,2013-09-14 04:01:00,
2013-09-13 23:02:00,44.8,42.6,30.11,WSW,257,3.5,3.5,92,0.00,CLR,BKN,0.00,0.0,WeatherDisplay:10.37,2013-09-14 04:02:00,
2013-09-13 23:04:00,44.8,42.6,30.11,West,261,3.5,3.5,92,0.00,CLR,BKN,0.00,0.0,WeatherDisplay:10.37,2013-09-14 04:04:00,
2013-09-13 23:09:00,44.6,42.4,30.11,WSW,257,4.0,4.0,92,0.00,CLR,BKN,0.00,0.0,WeatherDisplay:10.37,2013-09-14 04:09:00,
2013-09-13 23:14:00,44.5,42.3,30.11,West,261,3.5,3.5,92,0.00,CLR,BKN,0.00,0.0,WeatherDisplay:10.37,2013-09-14 04:14:00,
2013-09-13 23:20:00,44.3,42.1,30.11,WSW,257,3.5,3.5,92,0.00,CLR,BKN,0.00,0.0,WeatherDisplay:10.37,2013-09-14 04:20:00,
2013-09-13 23:25:00,44.3,42.1,30.11,West,260,2.0,4.0,92,0.00,CLR,BKN,0.00,0.0,WeatherDisplay:10.37,2013-09-14 04:25:00,
2013-09-13 23:30:00,44.2,42.0,30.11,West,260,2.0,3.0,92,0.00,CLR,BKN,0.00,0.0,WeatherDisplay:10.37,2013-09-14 04:30:00,
2013-09-13 23:35:00,44.1,41.9,30.11,West,261,3.5,3.5,92,0.00,CLR,BKN,0.00,0.0,WeatherDisplay:10.37,2013-09-14 04:35:00,
2013-09-13 23:40:00,43.9,41.7,30.11,West,261,4.0,4.0,92,0.00,CLR,BKN,0.00,0.0,WeatherDisplay:10.37,2013-09-14 04:40:00,
2013-09-13 23:45:00,43.8,41.6,30.11,West,261,4.6,4.6,92,0.00,CLR,BKN,0.00,0.0,WeatherDisplay:10.37,2013-09-14 04:45:00,
2013-09-13 23:50:00,43.8,41.6,30.11,West,261,5.0,5.0,92,0.00,CLR,BKN,0.00,0.0,WeatherDisplay:10.37,2013-09-14 04:50:00,
2013-09-13 23:55:00,43.6,41.4,30.11,WSW,257,5.0,5.0,92,0.00,CLR,BKN,0.00,0.0,WeatherDisplay:10.37,2013-09-14 04:55:00,